Time;durP1;ratioP1;P1;durP2;ratioP2;P2;SDS_P1;SDS_P2;PMS_P1;PMS_P2;Temp;Humidity;BMP_temperature;BMP_pressure;BME280_temperature;BME280_humidity;BME280_pressure;Samples;Min_cycle;Max_cycle;Signal;HPM_P1;HPM_P2
2022/12/05 00:00:33;;;;;;;81.67;39.90;;;4.20;99.90;;;;;;5006359;28;20212;-64
2022/12/05 00:03:06;;;;;;;65.30;35.20;;;4.20;99.90;;;;;;5007006;28;20917;-62
2022/12/05 00:05:31;;;;;;;74.83;38.23;;;4.20;99.90;;;;;;5003541;28;20214;-64
2022/12/05 00:07:57;;;;;;;71.73;37.33;;;4.20;99.90;;;;;;5006494;28;20191;-62
2022/12/05 00:10:22;;;;;;;78.47;38.93;;;4.20;99.90;;;;;;5006393;28;20211;-61
2022/12/05 00:12:48;;;;;;;87.33;39.77;;;4.30;99.90;;;;;;5005756;28;20282;-61
2022/12/05 00:15:13;;;;;;;84.20;40.33;;;4.20;99.90;;;;;;5003615;28;20200;-62
2022/12/05 00:17:39;;;;;;;74.57;38.30;;;4.20;99.90;;;;;;5006048;28;20203;-62
2022/12/05 00:20:07;;;;;;;88.00;37.80;;;4.20;99.90;;;;;;5006115;28;20685;-63
2022/12/05 00:22:37;;;;;;;75.30;35.83;;;4.20;99.90;;;;;;5006302;28;20666;-62
2022/12/05 00:25:06;;;;;;;86.77;38.57;;;4.20;99.90;;;;;;5005925;28;20229;-62
2022/12/05 00:27:32;;;;;;;80.87;39.00;;;4.20;99.90;;;;;;5005757;28;20195;-61
2022/12/05 00:29:58;;;;;;;76.57;38.57;;;4.20;99.90;;;;;;5005968;28;20205;-63
2022/12/05 00:32:25;;;;;;;81.00;40.57;;;4.20;99.90;;;;;;5004129;28;20238;-62
2022/12/05 00:34:50;;;;;;;73.37;38.53;;;4.20;99.90;;;;;;5006123;28;20718;-62
2022/12/05 00:37:16;;;;;;;82.53;39.07;;;4.20;99.90;;;;;;5005269;28;20247;-61
2022/12/05 00:39:41;;;;;;;76.90;38.47;;;4.20;99.90;;;;;;5005688;28;20224;-62
2022/12/05 00:42:06;;;;;;;77.03;39.00;;;4.20;99.90;;;;;;5005592;28;20746;-69
2022/12/05 00:44:32;;;;;;;77.37;39.80;;;4.20;99.90;;;;;;5006832;28;20204;-60
2022/12/05 00:46:57;;;;;;;84.93;39.97;;;4.20;99.90;;;;;;5006604;28;21001;-65
2022/12/05 00:49:23;;;;;;;77.53;38.00;;;4.20;99.90;;;;;;5002112;28;20203;-60
2022/12/05 00:51:48;;;;;;;72.43;38.73;;;4.20;99.90;;;;;;5005575;28;20198;-61
2022/12/05 00:54:15;;;;;;;76.80;38.07;;;4.30;99.90;;;;;;5003185;28;20242;-59
2022/12/05 00:56:41;;;;;;;80.80;39.67;;;4.30;99.90;;;;;;5005711;28;20231;-59
2022/12/05 00:59:07;;;;;;;84.03;39.70;;;4.20;99.90;;;;;;5006145;28;20608;-60
2022/12/05 01:01:39;;;;;;;83.70;39.97;;;4.30;99.90;;;;;;5003633;28;20376;-59
2022/12/05 01:04:11;;;;;;;80.83;38.20;;;4.30;99.90;;;;;;5003881;28;20204;-59
2022/12/05 01:06:37;;;;;;;82.00;39.03;;;4.30;99.90;;;;;;5006095;28;20196;-59
2022/12/05 01:09:03;;;;;;;69.27;37.90;;;4.40;99.90;;;;;;5006527;28;20313;-60
2022/12/05 01:11:30;;;;;;;63.10;36.50;;;4.40;99.90;;;;;;5006906;28;20259;-61
2022/12/05 01:13:56;;;;;;;77.97;38.93;;;4.40;99.90;;;;;;5006535;28;20210;-60
2022/12/05 01:16:27;;;;;;;79.50;38.60;;;4.40;99.90;;;;;;5004654;28;20204;-60
2022/12/05 01:18:55;;;;;;;77.40;37.77;;;4.40;99.90;;;;;;5005360;28;20283;-60
2022/12/05 01:21:20;;;;;;;72.87;39.60;;;4.30;99.90;;;;;;5005423;28;20215;-60
2022/12/05 01:23:46;;;;;;;79.10;39.43;;;4.30;99.90;;;;;;5005728;28;20200;-60
2022/12/05 01:26:14;;;;;;;78.63;39.80;;;4.30;99.90;;;;;;5007355;28;20563;-59
2022/12/05 01:28:40;;;;;;;75.03;39.67;;;4.30;99.90;;;;;;5009961;28;20212;-59
2022/12/05 01:31:09;;;;;;;75.37;38.20;;;4.20;99.90;;;;;;5009483;28;20215;-61
2022/12/05 01:33:35;;;;;;;86.20;38.97;;;4.20;99.90;;;;;;5009682;28;20203;-59
2022/12/05 01:36:02;;;;;;;67.17;36.80;;;4.20;99.90;;;;;;5009656;28;20326;-59
2022/12/05 01:38:27;;;;;;;81.30;40.67;;;4.20;99.90;;;;;;5009292;28;20207;-59
2022/12/05 01:41:04;;;;;;;75.67;38.93;;;4.20;99.90;;;;;;5008573;28;20214;-61
2022/12/05 01:43:30;;;;;;;67.43;37.20;;;4.20;99.90;;;;;;5009107;28;20287;-60
2022/12/05 01:45:56;;;;;;;72.30;41.17;;;4.20;99.90;;;;;;5007500;28;20283;-60
2022/12/05 01:48:25;;;;;;;72.13;38.53;;;4.20;99.90;;;;;;5009700;28;20659;-60
2022/12/05 01:50:52;;;;;;;71.43;39.10;;;4.20;99.90;;;;;;5026388;28;20217;-60
2022/12/05 01:53:18;;;;;;;64.87;36.80;;;4.20;99.90;;;;;;5026341;28;20268;-60
2022/12/05 01:55:46;;;;;;;74.47;39.20;;;4.20;99.90;;;;;;5026210;28;20202;-59
2022/12/05 01:58:11;;;;;;;76.43;39.80;;;4.20;99.90;;;;;;5026425;28;20180;-59
2022/12/05 02:00:38;;;;;;;78.37;40.63;;;4.20;99.90;;;;;;5026185;28;20208;-59
2022/12/05 02:03:10;;;;;;;78.93;38.00;;;4.20;99.90;;;;;;5025835;28;20224;-58
2022/12/05 02:05:36;;;;;;;71.40;37.60;;;4.20;99.90;;;;;;5026126;28;20183;-58
2022/12/05 02:08:06;;;;;;;73.27;40.47;;;4.10;99.90;;;;;;5025801;28;20187;-59
2022/12/05 02:14:24;;;;;;;78.33;39.67;;;4.10;99.90;;;;;;5029622;28;20617;-58
2022/12/05 02:17:16;;;;;;;75.93;38.60;;;4.10;99.90;;;;;;5026209;28;20215;-58
2022/12/05 02:20:03;;;;;;;62.80;34.80;;;4.20;99.90;;;;;;5025561;28;20199;-59
2022/12/05 02:22:55;;;;;;;71.23;37.93;;;4.20;99.90;;;;;;5026059;28;20179;-59
2022/12/05 02:25:35;;;;;;;69.33;37.37;;;4.20;99.90;;;;;;5025978;28;20168;-59
2022/12/05 02:28:25;;;;;;;78.90;40.33;;;4.20;99.90;;;;;;5025846;28;20172;-58
2022/12/05 02:30:59;;;;;;;64.07;37.67;;;4.20;99.90;;;;;;5025389;28;20281;-59
2022/12/05 02:33:46;;;;;;;74.10;36.93;;;4.20;99.90;;;;;;5025715;28;20542;-60
2022/12/05 02:36:26;;;;;;;71.80;38.03;;;4.20;99.90;;;;;;5024982;28;20178;-59
2022/12/05 02:39:25;;;;;;;79.13;39.40;;;4.20;99.90;;;;;;5025695;28;20294;-59
2022/12/05 02:42:00;;;;;;;70.30;35.40;;;4.20;99.90;;;;;;5025351;28;20183;-59
2022/12/05 02:44:41;;;;;;;73.43;36.13;;;4.20;99.90;;;;;;5025431;28;20175;-59
2022/12/05 02:47:11;;;;;;;74.37;37.77;;;4.20;99.90;;;;;;5025695;28;20178;-60
2022/12/05 02:49:38;;;;;;;78.30;37.77;;;4.20;99.90;;;;;;5025558;28;20176;-60
2022/12/05 02:52:07;;;;;;;74.27;35.67;;;4.20;99.90;;;;;;5025455;28;20184;-59
2022/12/05 02:54:37;;;;;;;64.47;35.53;;;4.20;99.90;;;;;;5025093;28;20207;-59
2022/12/05 02:57:04;;;;;;;71.67;37.27;;;4.20;99.90;;;;;;5024840;28;20759;-60
2022/12/05 02:59:30;;;;;;;68.10;36.27;;;4.30;99.90;;;;;;5025304;28;20210;-60
2022/12/05 03:01:55;;;;;;;69.93;35.37;;;4.30;99.90;;;;;;5025127;28;20233;-61
2022/12/05 03:04:23;;;;;;;74.10;37.77;;;4.30;99.90;;;;;;5024974;28;20210;-60
2022/12/05 03:06:56;;;;;;;72.50;36.33;;;4.30;99.90;;;;;;5024789;28;20317;-60
2022/12/05 03:09:32;;;;;;;71.27;37.37;;;4.30;99.90;;;;;;5024901;28;20193;-60
2022/12/05 03:12:08;;;;;;;72.63;35.37;;;4.30;99.90;;;;;;5029093;28;20588;-58
2022/12/05 03:14:45;;;;;;;71.17;35.57;;;4.30;99.90;;;;;;5044610;28;20699;-59
2022/12/05 03:17:18;;;;;;;61.87;34.10;;;4.30;99.90;;;;;;5044971;28;20197;-60
2022/12/05 03:20:05;;;;;;;69.33;35.23;;;4.30;99.90;;;;;;5044703;28;20203;-59
2022/12/05 03:22:56;;;;;;;58.67;33.23;;;4.30;99.90;;;;;;5044983;28;20163;-59
2022/12/05 03:25:29;;;;;;;61.70;35.23;;;4.30;99.90;;;;;;5044573;28;20186;-60
2022/12/05 03:28:05;;;;;;;61.20;33.67;;;4.30;99.90;;;;;;5044283;28;20720;-60
2022/12/05 03:30:36;;;;;;;59.60;33.27;;;4.30;99.90;;;;;;5044883;28;20194;-61
2022/12/05 03:33:10;;;;;;;61.80;32.80;;;4.30;99.90;;;;;;5030734;28;20243;-60
2022/12/05 03:35:44;;;;;;;56.07;29.77;;;4.30;99.90;;;;;;5005737;28;20184;-60
2022/12/05 03:38:13;;;;;;;51.63;29.33;;;4.30;99.90;;;;;;5004961;28;20188;-59
2022/12/05 03:40:51;;;;;;;49.53;28.90;;;4.30;99.90;;;;;;5005055;28;20234;-59
2022/12/05 03:43:33;;;;;;;49.73;29.20;;;4.30;99.90;;;;;;5010864;28;20188;-59
2022/12/05 03:46:11;;;;;;;46.80;27.13;;;4.30;99.90;;;;;;5024894;28;20717;-59
2022/12/05 03:49:03;;;;;;;53.93;26.93;;;4.20;99.90;;;;;;5024339;28;20175;-59
2022/12/05 03:51:55;;;;;;;42.87;25.07;;;4.30;99.90;;;;;;5024424;28;20737;-59
2022/12/05 03:54:52;;;;;;;43.03;25.47;;;4.30;99.90;;;;;;5022937;28;20371;-59
2022/12/05 03:57:33;;;;;;;45.50;27.03;;;4.30;99.90;;;;;;5023858;28;20220;-59
2022/12/05 04:00:03;;;;;;;44.13;27.47;;;4.30;99.90;;;;;;5024112;28;20738;-59
2022/12/05 04:02:44;;;;;;;48.90;28.27;;;4.30;99.90;;;;;;5024103;28;20180;-59
2022/12/05 04:05:39;;;;;;;48.53;27.53;;;4.30;99.90;;;;;;5023980;28;20546;-59
2022/12/05 04:08:10;;;;;;;44.07;25.43;;;4.30;99.90;;;;;;5023792;28;20175;-59
2022/12/05 04:10:47;;;;;;;45.23;27.00;;;4.40;99.90;;;;;;5023801;28;20193;-59
2022/12/05 04:13:21;;;;;;;47.90;27.03;;;4.40;99.90;;;;;;5023792;28;20180;-59
2022/12/05 04:18:55;;;;;;;48.57;25.97;;;4.40;99.90;;;;;;5006909;28;20215;-59
2022/12/05 04:21:39;;;;;;;48.43;25.90;;;4.30;99.90;;;;;;5006683;28;20212;-60
2022/12/05 04:27:20;;;;;;;46.23;26.30;;;4.40;99.90;;;;;;5015583;28;20276;-59
2022/12/05 04:29:52;;;;;;;40.43;26.00;;;4.40;99.90;;;;;;5016444;28;20206;-59
2022/12/05 04:32:23;;;;;;;47.63;26.27;;;4.40;99.90;;;;;;5016289;28;20697;-59
2022/12/05 04:34:56;;;;;;;45.23;26.37;;;4.30;99.90;;;;;;5015797;28;20214;-59
2022/12/05 04:37:25;;;;;;;47.37;26.77;;;4.30;99.90;;;;;;5014649;28;20696;-58
2022/12/05 04:39:59;;;;;;;44.87;27.30;;;4.30;99.90;;;;;;5018764;28;20237;-59
2022/12/05 04:42:27;;;;;;;50.23;27.23;;;4.40;99.90;;;;;;5013078;28;20294;-60
2022/12/05 04:44:55;;;;;;;49.90;26.67;;;4.40;99.90;;;;;;5015901;28;20285;-60
2022/12/05 04:47:27;;;;;;;47.03;25.43;;;4.40;99.90;;;;;;5013538;28;20202;-59
2022/12/05 04:49:54;;;;;;;46.80;26.10;;;4.40;99.90;;;;;;5015424;28;20206;-59
2022/12/05 04:52:21;;;;;;;42.53;26.97;;;4.50;99.90;;;;;;5018223;28;20210;-59
2022/12/05 04:55:01;;;;;;;44.17;26.20;;;4.50;99.90;;;;;;5017210;28;20214;-61
2022/12/05 04:57:32;;;;;;;40.23;24.57;;;4.40;99.90;;;;;;5004802;28;20227;-60
2022/12/05 04:59:58;;;;;;;41.30;25.00;;;4.40;99.90;;;;;;5007356;28;20603;-60
2022/12/05 05:02:50;;;;;;;42.03;26.17;;;4.40;99.90;;;;;;5010229;28;20704;-59
2022/12/05 05:05:18;;;;;;;43.73;25.40;;;4.40;99.90;;;;;;5009388;28;20821;-60
2022/12/05 05:07:46;;;;;;;41.93;25.53;;;4.40;99.90;;;;;;5007098;28;20721;-61
2022/12/05 05:10:15;;;;;;;40.83;25.27;;;4.40;99.90;;;;;;5018860;28;20227;-61
2022/12/05 05:12:40;;;;;;;39.23;24.30;;;4.40;99.90;;;;;;5009875;28;20206;-60
2022/12/05 05:15:06;;;;;;;38.63;23.17;;;4.40;99.90;;;;;;5010610;28;20889;-61
2022/12/05 05:17:31;;;;;;;35.30;22.63;;;4.40;99.90;;;;;;5007453;28;20289;-60
2022/12/05 05:20:22;;;;;;;35.73;23.40;;;4.40;99.90;;;;;;5008804;28;20223;-59
2022/12/05 05:22:42;;;;;;;39.60;22.23;;;4.40;99.90;;;;;;5007862;28;20192;-60
2022/12/05 05:25:08;;;;;;;37.40;23.23;;;4.40;99.90;;;;;;5009092;28;20246;-60
2022/12/05 05:27:33;;;;;;;40.47;24.00;;;4.40;99.90;;;;;;5009902;28;20200;-60
2022/12/05 05:29:59;;;;;;;43.80;24.67;;;4.40;99.90;;;;;;5009348;28;20725;-60
2022/12/05 05:32:24;;;;;;;37.03;20.87;;;4.40;99.90;;;;;;5008992;28;20195;-60
2022/12/05 05:34:49;;;;;;;36.60;22.33;;;4.50;99.90;;;;;;5009530;28;20203;-59
2022/12/05 05:37:15;;;;;;;40.87;23.10;;;4.40;99.90;;;;;;5007047;28;20424;-59
2022/12/05 05:39:40;;;;;;;36.07;22.43;;;4.40;99.90;;;;;;5007941;28;20228;-59
2022/12/05 05:42:06;;;;;;;37.80;22.53;;;4.40;99.90;;;;;;5010525;28;20204;-58
2022/12/05 05:44:31;;;;;;;32.23;21.97;;;4.50;99.90;;;;;;5006217;28;20203;-59
2022/12/05 05:46:57;;;;;;;37.07;21.60;;;4.50;99.90;;;;;;5008462;28;20204;-58
2022/12/05 05:49:22;;;;;;;28.90;18.97;;;4.50;99.90;;;;;;5007900;28;20303;-58
2022/12/05 05:51:48;;;;;;;29.90;19.73;;;4.60;99.90;;;;;;5011080;28;20219;-59
2022/12/05 05:54:13;;;;;;;31.37;18.67;;;4.50;99.90;;;;;;5004886;28;20208;-59
2022/12/05 05:56:39;;;;;;;28.40;18.73;;;4.50;99.90;;;;;;5008998;28;20591;-58
2022/12/05 05:59:04;;;;;;;34.20;19.60;;;4.50;99.90;;;;;;5008494;28;20218;-58
2022/12/05 06:01:30;;;;;;;27.43;20.07;;;4.50;99.90;;;;;;5007924;28;20303;-58
2022/12/05 06:03:56;;;;;;;27.77;17.30;;;4.60;99.90;;;;;;5006511;28;20276;-58
2022/12/05 06:06:24;;;;;;;23.87;16.90;;;4.50;99.90;;;;;;5008121;28;20808;-58
2022/12/05 06:08:49;;;;;;;29.93;19.03;;;4.50;99.90;;;;;;5007890;28;20199;-58
2022/12/05 06:11:20;;;;;;;26.33;16.87;;;4.50;99.90;;;;;;5009795;28;20210;-59
2022/12/05 06:13:46;;;;;;;25.10;16.97;;;4.50;99.90;;;;;;5008415;28;20198;-60
2022/12/05 06:16:13;;;;;;;29.10;17.83;;;4.50;99.90;;;;;;5002025;28;20204;-59
2022/12/05 06:18:39;;;;;;;24.57;16.40;;;4.60;99.90;;;;;;5015999;28;20208;-58
2022/12/05 06:21:07;;;;;;;22.13;15.07;;;4.50;99.90;;;;;;5019437;28;20249;-57
2022/12/05 06:23:34;;;;;;;25.27;17.20;;;4.60;99.90;;;;;;5014337;28;20307;-58
2022/12/05 06:26:00;;;;;;;24.73;15.73;;;4.60;99.90;;;;;;5016305;28;20226;-58
2022/12/05 06:28:25;;;;;;;20.87;15.77;;;4.60;99.90;;;;;;5007769;28;20240;-59
2022/12/05 06:30:51;;;;;;;18.60;14.33;;;4.60;99.90;;;;;;5018037;28;20277;-58
2022/12/05 06:33:17;;;;;;;18.70;13.87;;;4.60;99.90;;;;;;5017465;28;20676;-58
2022/12/05 06:35:43;;;;;;;20.40;13.87;;;4.60;99.90;;;;;;5017031;28;20238;-58
2022/12/05 06:38:09;;;;;;;18.40;14.33;;;4.60;99.90;;;;;;5021562;28;20602;-58
2022/12/05 06:40:40;;;;;;;19.23;13.57;;;4.60;99.90;;;;;;5013011;28;20215;-58
2022/12/05 06:43:05;;;;;;;22.80;14.37;;;4.60;99.90;;;;;;5017189;28;20464;-59
2022/12/05 06:45:31;;;;;;;21.83;14.73;;;4.60;99.90;;;;;;5016952;28;20230;-60
2022/12/05 06:47:56;;;;;;;18.90;14.47;;;4.60;99.90;;;;;;5019421;28;20541;-59
2022/12/05 06:50:22;;;;;;;19.50;13.80;;;4.60;99.90;;;;;;5017107;28;20202;-59
2022/12/05 06:52:49;;;;;;;20.40;14.60;;;4.60;99.90;;;;;;5016447;28;20288;-59
2022/12/05 06:55:14;;;;;;;19.30;14.53;;;4.60;99.90;;;;;;5015910;28;20203;-58
2022/12/05 06:57:40;;;;;;;21.20;13.40;;;4.60;99.90;;;;;;5017113;28;20697;-59
2022/12/05 07:02:51;;;;;;;18.17;14.10;;;4.60;99.90;;;;;;5017377;28;20288;-58
2022/12/05 07:05:17;;;;;;;20.67;15.10;;;4.60;99.90;;;;;;5016900;28;20321;-58
2022/12/05 07:07:43;;;;;;;23.17;14.97;;;4.50;99.90;;;;;;5017392;28;20667;-59
2022/12/05 07:10:08;;;;;;;19.83;14.37;;;4.50;99.90;;;;;;5016429;28;20204;-59
2022/12/05 07:12:34;;;;;;;19.27;13.97;;;4.50;99.90;;;;;;5014941;28;20238;-59
2022/12/05 07:14:59;;;;;;;20.43;15.03;;;4.60;99.90;;;;;;5016704;28;20199;-59
2022/12/05 07:17:25;;;;;;;20.03;13.77;;;4.60;99.90;;;;;;5016644;28;20223;-59
2022/12/05 07:19:51;;;;;;;23.80;16.70;;;4.60;99.90;;;;;;5020062;28;20213;-58
2022/12/05 07:22:18;;;;;;;19.80;14.27;;;4.60;99.90;;;;;;5012733;28;20203;-59
2022/12/05 07:24:44;;;;;;;21.43;14.83;;;4.60;99.90;;;;;;5020402;28;20195;-60
2022/12/05 07:27:11;;;;;;;20.10;15.03;;;4.60;99.90;;;;;;5013056;28;20285;-63
2022/12/05 07:29:36;;;;;;;20.23;14.53;;;4.60;99.90;;;;;;5018756;28;20620;-60
2022/12/05 07:32:02;;;;;;;22.93;15.07;;;4.60;99.90;;;;;;5014040;28;20274;-60
2022/12/05 07:34:28;;;;;;;19.77;14.27;;;4.50;99.90;;;;;;5016082;28;20871;-60
2022/12/05 07:36:53;;;;;;;24.63;15.67;;;4.50;99.90;;;;;;5014625;28;20211;-60
2022/12/05 07:39:19;;;;;;;22.17;15.90;;;4.50;99.90;;;;;;5016453;28;20218;-59
2022/12/05 07:41:44;;;;;;;20.57;15.60;;;4.40;99.90;;;;;;5016396;28;20310;-59
2022/12/05 07:44:11;;;;;;;21.03;15.27;;;4.40;99.90;;;;;;5016488;28;20215;-59
2022/12/05 07:46:38;;;;;;;22.40;15.47;;;4.50;99.90;;;;;;5020066;28;20199;-59
2022/12/05 07:49:03;;;;;;;20.43;15.43;;;4.40;99.90;;;;;;5016178;28;20203;-59
2022/12/05 07:51:29;;;;;;;22.27;16.03;;;4.50;99.90;;;;;;5011775;28;20261;-58
2022/12/05 07:53:55;;;;;;;22.53;15.57;;;4.50;99.90;;;;;;5016536;28;20696;-59
2022/12/05 07:56:20;;;;;;;22.60;15.47;;;4.60;99.90;;;;;;5015826;28;20302;-59
2022/12/05 07:58:49;;;;;;;21.60;15.90;;;4.50;99.90;;;;;;5016318;28;20196;-59
2022/12/05 08:01:21;;;;;;;22.17;15.23;;;4.50;99.90;;;;;;5014255;28;20215;-59
2022/12/05 08:03:48;;;;;;;22.70;16.27;;;4.50;99.90;;;;;;5017649;28;20670;-59
2022/12/05 08:06:19;;;;;;;21.33;14.57;;;4.60;99.90;;;;;;5017258;28;20589;-58
2022/12/05 08:08:48;;;;;;;21.53;15.50;;;4.50;99.90;;;;;;5012530;28;20306;-58
2022/12/05 08:11:19;;;;;;;17.73;13.03;;;4.50;99.90;;;;;;5015165;28;20226;-59
2022/12/05 08:13:45;;;;;;;17.87;13.90;;;4.50;99.90;;;;;;5015898;28;20207;-58
2022/12/05 08:16:16;;;;;;;22.90;14.67;;;4.50;99.90;;;;;;5015503;28;20403;-58
2022/12/05 08:18:43;;;;;;;19.77;13.67;;;4.40;99.90;;;;;;5013908;28;20289;-58
2022/12/05 08:21:14;;;;;;;20.40;14.40;;;4.40;99.90;;;;;;5014643;28;20210;-58
2022/12/05 08:23:40;;;;;;;21.00;14.40;;;4.50;99.90;;;;;;5013610;28;20221;-58
2022/12/05 08:26:08;;;;;;;18.80;13.67;;;4.50;99.90;;;;;;5015905;28;20669;-57
2022/12/05 08:28:34;;;;;;;16.40;12.20;;;4.50;99.90;;;;;;5015616;28;20236;-57
2022/12/05 08:31:05;;;;;;;19.70;13.47;;;4.60;99.90;;;;;;5018781;28;20257;-58
2022/12/05 08:33:30;;;;;;;19.47;12.57;;;4.60;99.90;;;;;;5012540;28;20207;-59
2022/12/05 08:35:56;;;;;;;19.13;13.33;;;4.60;99.90;;;;;;5015622;28;20684;-60
2022/12/05 08:38:21;;;;;;;16.67;12.70;;;4.60;99.90;;;;;;5015970;28;20214;-59
2022/12/05 08:40:47;;;;;;;19.00;14.17;;;4.60;99.90;;;;;;5016254;28;20696;-60
2022/12/05 08:43:13;;;;;;;22.00;13.60;;;4.60;99.90;;;;;;5013619;28;20200;-60
2022/12/05 08:45:38;;;;;;;20.93;14.37;;;4.60;99.90;;;;;;5015010;28;20192;-59
2022/12/05 08:48:04;;;;;;;19.93;13.67;;;4.70;99.90;;;;;;5014974;28;20196;-60
2022/12/05 08:50:30;;;;;;;17.50;13.73;;;4.60;99.90;;;;;;5015008;28;20215;-60
2022/12/05 08:52:55;;;;;;;20.80;13.73;;;4.70;99.90;;;;;;5015682;28;20195;-60
2022/12/05 08:55:21;;;;;;;23.17;14.47;;;4.60;99.90;;;;;;5015719;28;20214;-59
2022/12/05 08:57:46;;;;;;;19.93;13.93;;;4.70;99.90;;;;;;5013737;28;20257;-60
2022/12/05 09:00:12;;;;;;;23.87;14.97;;;4.70;99.90;;;;;;5025905;28;20214;-59
2022/12/05 09:02:38;;;;;;;22.37;14.53;;;4.70;99.90;;;;;;5010107;28;20222;-59
2022/12/05 09:05:03;;;;;;;20.43;14.63;;;4.70;99.90;;;;;;5014387;28;20795;-60
2022/12/05 09:07:29;;;;;;;21.47;14.80;;;4.70;99.90;;;;;;5013164;28;20195;-60
2022/12/05 09:09:54;;;;;;;20.53;15.53;;;4.70;99.90;;;;;;5015150;28;20203;-59
2022/12/05 09:12:20;;;;;;;19.03;13.87;;;4.70;99.90;;;;;;5012584;28;20707;-60
2022/12/05 09:14:45;;;;;;;19.97;14.20;;;4.70;99.90;;;;;;5017019;28;20202;-62
2022/12/05 09:17:10;;;;;;;18.20;13.87;;;4.80;99.90;;;;;;5014732;28;20203;-59
2022/12/05 09:19:36;;;;;;;19.37;14.33;;;4.80;99.90;;;;;;5016868;28;20302;-58
2022/12/05 09:22:03;;;;;;;18.87;13.73;;;4.80;99.90;;;;;;5013091;28;20564;-59
2022/12/05 09:24:28;;;;;;;15.73;12.67;;;4.80;99.90;;;;;;5014976;28;20206;-58
2022/12/05 09:26:54;;;;;;;18.03;13.97;;;4.80;99.90;;;;;;5022996;28;20582;-59
2022/12/05 09:29:19;;;;;;;20.60;14.03;;;4.80;99.90;;;;;;5025708;28;20195;-61
2022/12/05 09:31:47;;;;;;;19.17;14.50;;;4.80;99.90;;;;;;5023168;28;20198;-60
2022/12/05 09:34:14;;;;;;;18.13;12.77;;;4.80;99.90;;;;;;5021302;28;20685;-61
2022/12/05 09:36:39;;;;;;;18.50;12.57;;;4.90;99.90;;;;;;5014872;28;20204;-60
2022/12/05 09:39:05;;;;;;;17.30;12.80;;;4.80;99.90;;;;;;5014138;28;20203;-60
2022/12/05 09:42:04;;;;;;;16.63;12.73;;;4.90;99.90;;;;;;5012699;28;20207;-60
2022/12/05 09:44:53;;;;;;;17.93;13.10;;;4.80;99.90;;;;;;5014955;28;20213;-60
2022/12/05 09:47:22;;;;;;;17.70;13.00;;;4.80;99.90;;;;;;5015770;28;20577;-60
2022/12/05 09:49:54;;;;;;;18.10;13.17;;;4.90;99.90;;;;;;5018320;28;20325;-60
2022/12/05 09:52:42;;;;;;;23.87;15.57;;;4.80;99.90;;;;;;5017968;28;20324;-61
2022/12/05 09:55:14;;;;;;;20.80;13.00;;;4.80;99.90;;;;;;5018715;28;20772;-59
2022/12/05 09:57:50;;;;;;;18.90;13.77;;;4.80;99.90;;;;;;5015219;28;20296;-60
2022/12/05 10:00:15;;;;;;;18.33;13.67;;;4.80;99.90;;;;;;5018660;28;20227;-60
2022/12/05 10:02:58;;;;;;;20.43;14.07;;;4.80;99.90;;;;;;5015664;28;20199;-61
2022/12/05 10:05:30;;;;;;;21.70;13.60;;;4.80;99.90;;;;;;5017732;28;20207;-60
2022/12/05 10:08:22;;;;;;;18.93;14.43;;;4.80;99.90;;;;;;5016963;28;20203;-60
2022/12/05 10:11:06;;;;;;;18.67;14.17;;;4.80;99.90;;;;;;5009610;28;20203;-60
2022/12/05 10:14:00;;;;;;;17.20;13.43;;;4.80;99.90;;;;;;5020852;28;20348;-60
2022/12/05 10:16:32;;;;;;;19.93;12.93;;;4.80;99.90;;;;;;5014493;28;20215;-60
2022/12/05 10:19:03;;;;;;;18.03;14.03;;;4.70;99.90;;;;;;5021719;28;20228;-60
2022/12/05 10:21:57;;;;;;;19.20;13.90;;;4.80;99.90;;;;;;5015289;28;20234;-60
2022/12/05 10:24:31;;;;;;;21.97;14.80;;;4.80;99.90;;;;;;5014554;28;20835;-60
2022/12/05 10:27:03;;;;;;;18.97;15.17;;;4.80;99.90;;;;;;5017583;28;20700;-60
2022/12/05 10:29:37;;;;;;;20.43;14.67;;;4.80;99.90;;;;;;5016602;28;20286;-60
2022/12/05 10:32:37;;;;;;;22.77;15.00;;;4.90;99.90;;;;;;5017406;28;20538;-60
2022/12/05 10:35:15;;;;;;;22.47;14.90;;;4.90;99.90;;;;;;5012598;28;20203;-59
2022/12/05 10:38:03;;;;;;;22.10;14.43;;;4.90;99.90;;;;;;5015563;28;20195;-60
2022/12/05 10:40:35;;;;;;;21.57;15.40;;;4.90;99.90;;;;;;5016680;28;20224;-60
2022/12/05 10:43:00;;;;;;;21.60;15.27;;;4.90;99.90;;;;;;5017092;28;20195;-60
2022/12/05 10:45:26;;;;;;;21.50;14.03;;;4.90;99.90;;;;;;5017652;28;20553;-59
2022/12/05 10:47:56;;;;;;;18.50;13.90;;;4.80;99.90;;;;;;5017428;28;20545;-60
2022/12/05 10:50:23;;;;;;;19.40;14.13;;;4.90;99.90;;;;;;5016935;28;20208;-59
2022/12/05 10:52:51;;;;;;;19.03;13.87;;;4.90;99.90;;;;;;5010742;28;20198;-60
2022/12/05 10:55:18;;;;;;;23.10;14.50;;;4.90;99.90;;;;;;5003846;28;21045;-61
2022/12/05 10:58:06;;;;;;;17.53;14.33;;;4.90;99.90;;;;;;5009512;28;20277;-61
2022/12/05 11:00:32;;;;;;;20.47;13.70;;;4.90;99.90;;;;;;5005732;28;20714;-60
2022/12/05 11:03:02;;;;;;;17.60;14.83;;;5.00;99.90;;;;;;5010662;28;20208;-64
2022/12/05 11:05:31;;;;;;;19.60;15.27;;;4.90;99.90;;;;;;5006665;28;20322;-64
2022/12/05 11:07:58;;;;;;;21.90;14.80;;;5.00;99.90;;;;;;5004567;28;20204;-64
2022/12/05 11:10:34;;;;;;;22.90;14.80;;;5.00;99.90;;;;;;5010399;28;20748;-63
2022/12/05 11:13:00;;;;;;;21.83;15.97;;;5.00;99.90;;;;;;5006010;28;20616;-64
2022/12/05 11:15:30;;;;;;;23.37;15.80;;;5.00;99.90;;;;;;5015144;28;20215;-64
2022/12/05 11:18:15;;;;;;;21.37;14.33;;;5.10;99.90;;;;;;5010913;28;20203;-65
2022/12/05 11:20:41;;;;;;;19.13;14.50;;;5.10;99.90;;;;;;5021714;28;20207;-67
2022/12/05 11:23:27;;;;;;;21.93;14.77;;;5.10;99.90;;;;;;5022053;28;20315;-65
2022/12/05 11:25:54;;;;;;;21.13;15.03;;;5.10;99.90;;;;;;5020145;28;20195;-64
2022/12/05 11:28:20;;;;;;;21.63;15.17;;;5.10;99.90;;;;;;5019453;28;20211;-68
2022/12/05 11:31:19;;;;;;;19.80;15.50;;;5.10;99.90;;;;;;5017806;28;20230;-69
2022/12/05 11:34:10;;;;;;;19.83;15.80;;;5.10;99.90;;;;;;5001950;28;20232;-62
2022/12/05 11:36:41;;;;;;;22.30;14.37;;;5.20;99.90;;;;;;5006713;28;20318;-62
2022/12/05 11:39:10;;;;;;;22.73;15.57;;;5.20;99.90;;;;;;5006657;28;20200;-62
2022/12/05 11:42:04;;;;;;;24.70;15.57;;;5.30;99.90;;;;;;5013271;28;20259;-68
2022/12/05 11:44:39;;;;;;;24.57;15.67;;;5.30;99.90;;;;;;5006313;28;20207;-58
2022/12/05 11:47:36;;;;;;;20.90;15.43;;;5.30;99.90;;;;;;5008484;28;20530;-58
2022/12/05 11:50:21;;;;;;;22.57;16.97;;;5.40;99.90;;;;;;5015077;28;20238;-60
2022/12/05 11:53:03;;;;;;;20.87;15.20;;;5.40;99.90;;;;;;5017538;28;20286;-61
2022/12/05 11:55:37;;;;;;;23.50;16.17;;;5.40;99.90;;;;;;5022057;28;20295;-61
2022/12/05 11:58:29;;;;;;;21.80;16.00;;;5.40;99.90;;;;;;5017949;28;20231;-61
2022/12/05 12:01:22;;;;;;;20.10;14.80;;;5.40;99.90;;;;;;5019586;28;20206;-60
2022/12/05 12:04:13;;;;;;;20.20;15.27;;;5.50;99.90;;;;;;5015891;28;20951;-58
2022/12/05 12:07:32;;;;;;;20.83;16.50;;;5.50;99.90;;;;;;5016337;28;20191;-60
2022/12/05 12:10:28;;;;;;;24.47;16.10;;;5.60;99.90;;;;;;5025884;28;20576;-56
2022/12/05 12:12:57;;;;;;;22.70;15.77;;;5.70;99.90;;;;;;5004784;28;20212;-57
2022/12/05 12:15:49;;;;;;;25.70;16.87;;;5.70;99.90;;;;;;5005852;28;20203;-56
2022/12/05 12:18:34;;;;;;;27.53;16.87;;;5.70;99.90;;;;;;5004275;28;20204;-57
2022/12/05 12:21:35;;;;;;;19.93;14.70;;;5.70;99.90;;;;;;5004701;28;20216;-57
2022/12/05 12:24:20;;;;;;;24.20;16.73;;;5.70;99.90;;;;;;5000747;28;20208;-57
2022/12/05 12:27:04;;;;;;;22.57;15.40;;;5.60;99.90;;;;;;5009731;28;20658;-57
2022/12/05 12:29:36;;;;;;;21.90;15.13;;;5.70;99.90;;;;;;5005373;28;20200;-58
2022/12/05 12:32:26;;;;;;;21.90;15.53;;;5.70;99.90;;;;;;5010662;28;20195;-59
2022/12/05 12:35:12;;;;;;;24.73;16.80;;;5.60;99.90;;;;;;5019678;28;20447;-58
2022/12/05 12:37:46;;;;;;;26.20;17.07;;;5.60;99.90;;;;;;5013415;28;20199;-57
2022/12/05 12:40:36;;;;;;;25.27;17.57;;;5.60;99.90;;;;;;5013854;28;20592;-58
2022/12/05 12:43:18;;;;;;;26.63;17.03;;;5.60;99.90;;;;;;5011823;28;20647;-57
2022/12/05 12:46:04;;;;;;;25.20;18.47;;;5.50;99.90;;;;;;5015045;28;20654;-70
2022/12/05 12:49:27;;;;;;;27.43;18.77;;;5.50;99.90;;;;;;5016351;28;20243;-59
2022/12/05 12:52:00;;;;;;;24.93;17.43;;;5.50;99.90;;;;;;4992471;28;20738;-59
2022/12/05 12:55:05;;;;;;;22.87;17.03;;;5.40;99.90;;;;;;5006669;28;20661;-57
2022/12/05 12:57:56;;;;;;;31.50;20.50;;;5.50;99.90;;;;;;4989016;28;20259;-58
2022/12/05 13:00:49;;;;;;;26.57;18.13;;;5.50;99.90;;;;;;5007086;28;20214;-59
2022/12/05 13:03:22;;;;;;;33.10;19.63;;;5.50;99.90;;;;;;5006065;28;20192;-56
2022/12/05 13:05:55;;;;;;;29.10;19.83;;;5.50;99.90;;;;;;5002126;28;20671;-57
2022/12/05 13:08:40;;;;;;;27.80;19.70;;;5.50;99.90;;;;;;5007845;28;20199;-57
2022/12/05 13:11:10;;;;;;;27.53;19.10;;;5.50;99.90;;;;;;5006015;28;20578;-56
2022/12/05 13:13:42;;;;;;;33.93;20.37;;;5.50;99.90;;;;;;5005634;28;20234;-56